Observations for RIETI, Italy (LIQN)

LIQN 240850Z VRB03KT CAVOK 26/15 Q1018  
LIQN 240800Z VRB03KT CAVOK 23/16 Q1018
LIQN 231750Z 30005KT CAVOK 28/14 Q1014  
LIQN 231650Z 34005KT CAVOK 29/14 Q1014  
LIQN 231550Z 34006KT CAVOK 30/13 Q1014  
LIQN 231450Z 33007KT CAVOK 30/13 Q1014  
LIQN 231350Z 34004KT CAVOK 29/13 Q1014  
LIQN 231250Z 29006KT CAVOK 29/16 Q1015  
LIQN 231150Z 26004KT CAVOK 29/14 Q1015  
LIQN 231050Z 30005KT CAVOK 28/13 Q1015  
LIQN 230950Z 27004KT CAVOK 27/15 Q1015  
LIQN 230850Z VRB03KT CAVOK 26/15 Q1015